createdAt,value
2022-09-25T00:01:22.259Z,14.27
2022-09-25T00:03:49.257Z,12.85
2022-09-25T00:06:20.702Z,11.30
2022-09-25T00:08:47.865Z,10.32
2022-09-25T00:11:17.406Z,9.80
2022-09-25T00:13:45.791Z,10.40
2022-09-25T00:16:17.949Z,10.13
2022-09-25T00:19:03.771Z,10.10
2022-09-25T00:21:31.965Z,10.55
2022-09-25T00:24:00.585Z,9.90
2022-09-25T00:26:33.042Z,10.70
2022-09-25T00:29:03.029Z,9.70
2022-09-25T00:31:30.604Z,10.00
2022-09-25T00:33:59.858Z,9.02
2022-09-25T00:36:27.049Z,9.85
2022-09-25T00:38:56.442Z,10.00
2022-09-25T00:41:27.543Z,9.95
2022-09-25T00:43:56.837Z,9.95
2022-09-25T00:46:26.709Z,8.57
2022-09-25T00:49:10.069Z,8.25
2022-09-25T00:52:06.276Z,7.70
2022-09-25T00:54:47.580Z,7.20
2022-09-25T00:57:18.389Z,8.38
2022-09-25T00:59:47.793Z,8.35
2022-09-25T01:02:24.908Z,9.02
2022-09-25T01:04:55.077Z,7.97
2022-09-25T01:07:21.856Z,8.48
2022-09-25T01:09:48.916Z,7.95
2022-09-25T01:12:15.543Z,7.85
2022-09-25T01:14:42.699Z,7.72
2022-09-25T01:17:29.347Z,7.68
2022-09-25T01:20:11.056Z,7.35
2022-09-25T01:22:57.100Z,7.10
2022-09-25T01:25:42.266Z,7.10
2022-09-25T01:28:35.691Z,6.80
2022-09-25T01:31:07.700Z,7.20
2022-09-25T01:33:41.725Z,6.60
2022-09-25T01:36:25.664Z,6.13
2022-09-25T01:39:23.539Z,5.60
2022-09-25T01:42:22.413Z,5.22
2022-09-25T01:45:03.158Z,5.10
2022-09-25T01:47:33.927Z,5.10
2022-09-25T01:50:03.947Z,4.90
2022-09-25T01:52:41.246Z,4.35
2022-09-25T01:55:36.166Z,4.43
2022-09-25T01:58:13.793Z,4.57
2022-09-25T02:00:44.726Z,4.50
2022-09-25T02:03:18.277Z,4.10
2022-09-25T02:05:56.906Z,4.50
2022-09-25T02:08:30.247Z,3.85
2022-09-25T02:11:05.594Z,5.10
2022-09-25T02:13:46.100Z,4.65
2022-09-25T02:16:20.540Z,4.78
2022-09-25T02:19:06.939Z,5.10
2022-09-25T02:21:42.557Z,5.00
2022-09-25T02:24:30.588Z,4.68
2022-09-25T02:26:57.219Z,4.65
2022-09-25T02:29:23.894Z,5.10
2022-09-25T02:31:53.634Z,5.00
2022-09-25T02:34:21.825Z,5.15
2022-09-25T02:36:48.665Z,4.93
2022-09-25T02:39:21.483Z,4.65
2022-09-25T02:42:09.360Z,4.90
2022-09-25T02:45:13.433Z,4.65
2022-09-25T02:47:58.599Z,4.72
2022-09-25T02:50:46.478Z,5.18
2022-09-25T02:53:31.648Z,5.47
2022-09-25T02:56:33.025Z,5.38
2022-09-25T02:59:06.856Z,5.82
2022-09-25T03:04:06.587Z,6.30
2022-09-25T03:06:36.209Z,7.15
2022-09-25T03:09:10.128Z,7.07
2022-09-25T03:14:11.090Z,7.30
2022-09-25T03:16:48.530Z,7.35
2022-09-25T03:19:16.422Z,7.63
2022-09-25T03:21:43.444Z,7.80
2022-09-25T03:24:10.081Z,6.70
2022-09-25T03:26:36.761Z,7.25
2022-09-25T03:29:03.764Z,6.93
2022-09-25T03:31:30.738Z,6.90
2022-09-25T03:34:00.247Z,6.20
2022-09-25T03:36:29.109Z,6.13
2022-09-25T03:38:58.908Z,6.15
2022-09-25T03:41:31.428Z,6.05
2022-09-25T03:43:58.772Z,6.07
2022-09-25T03:46:28.195Z,6.75
2022-09-25T03:48:55.532Z,6.55
2022-09-25T03:51:22.318Z,6.65
2022-09-25T03:53:50.389Z,5.72
2022-09-25T03:56:21.665Z,5.20
2022-09-25T03:58:52.016Z,5.60
2022-09-25T04:01:24.781Z,6.30
2022-09-25T04:03:52.234Z,5.65
2022-09-25T04:06:24.380Z,6.07
2022-09-25T04:08:51.958Z,5.85
2022-09-25T04:11:20.151Z,5.55
2022-09-25T04:13:49.378Z,5.68
2022-09-25T04:16:17.087Z,6.32
2022-09-25T04:18:44.342Z,6.75
2022-09-25T04:21:13.536Z,7.47
2022-09-25T04:23:42.669Z,6.47
2022-09-25T04:26:09.888Z,6.97
2022-09-25T04:28:40.269Z,6.68
2022-09-25T04:31:07.178Z,5.90
2022-09-25T04:33:48.858Z,5.82
2022-09-25T04:36:23.374Z,5.28
2022-09-25T04:38:50.131Z,5.50
2022-09-25T04:41:19.626Z,5.20
2022-09-25T04:43:46.263Z,5.05
2022-09-25T04:46:20.043Z,5.15
2022-09-25T04:48:50.388Z,5.03
2022-09-25T04:51:17.113Z,5.40
2022-09-25T04:53:43.713Z,4.80
2022-09-25T04:56:15.823Z,4.95
2022-09-25T04:58:51.974Z,4.38
2022-09-25T05:01:20.915Z,4.50
2022-09-25T05:03:51.099Z,4.68
2022-09-25T05:06:20.234Z,4.45
2022-09-25T05:08:53.084Z,4.32
2022-09-25T05:11:19.737Z,4.40
2022-09-25T05:13:52.730Z,4.53
2022-09-25T05:16:19.919Z,4.37
2022-09-25T05:18:49.024Z,4.38
2022-09-25T05:21:15.760Z,4.25
2022-09-25T05:23:42.389Z,5.05
2022-09-25T05:26:10.943Z,5.03
2022-09-25T05:28:37.657Z,4.60
2022-09-25T05:31:05.545Z,4.50
2022-09-25T05:33:35.875Z,4.72
2022-09-25T05:36:07.182Z,4.25
2022-09-25T05:38:35.567Z,4.82
2022-09-25T05:41:09.495Z,4.35
2022-09-25T05:46:07.700Z,5.15
2022-09-25T05:48:36.982Z,5.20
2022-09-25T05:51:04.149Z,4.88
2022-09-25T05:53:30.916Z,4.88
2022-09-25T05:56:00.064Z,4.70
2022-09-25T05:58:31.029Z,5.20
2022-09-25T06:01:03.330Z,5.10
2022-09-25T06:03:30.271Z,5.30
2022-09-25T06:06:00.664Z,5.30
2022-09-25T06:08:30.997Z,5.28
2022-09-25T06:10:58.359Z,4.82
2022-09-25T06:13:25.492Z,5.28
2022-09-25T06:15:56.985Z,4.97
2022-09-25T06:18:25.165Z,4.88
2022-09-25T06:20:52.564Z,5.15
2022-09-25T06:23:19.493Z,4.78
2022-09-25T06:25:48.557Z,5.03
2022-09-25T06:28:15.466Z,5.18
2022-09-25T06:30:42.083Z,4.82
2022-09-25T06:33:14.244Z,5.75
2022-09-25T06:35:45.606Z,5.50
2022-09-25T06:38:18.049Z,6.05
2022-09-25T06:40:45.449Z,6.40
2022-09-25T06:43:15.307Z,5.97
2022-09-25T06:45:42.663Z,5.93
2022-09-25T06:48:16.436Z,4.97
2022-09-25T06:50:46.995Z,5.75
2022-09-25T06:53:14.869Z,5.93
2022-09-25T06:55:45.190Z,6.07
2022-09-25T06:58:14.979Z,5.93
2022-09-25T07:00:45.640Z,5.72
2022-09-25T07:03:31.135Z,5.55
2022-09-25T07:06:00.343Z,5.47
2022-09-25T07:08:27.448Z,5.85
2022-09-25T07:10:58.001Z,6.03
2022-09-25T07:13:28.641Z,6.05
2022-09-25T07:15:58.173Z,5.57
2022-09-25T07:18:29.163Z,6.10
2022-09-25T07:21:04.973Z,5.40
2022-09-25T07:23:33.479Z,5.60
2022-09-25T07:26:07.469Z,5.68
2022-09-25T07:28:34.953Z,5.32
2022-09-25T07:31:25.731Z,5.78
2022-09-25T07:33:52.900Z,6.18
2022-09-25T07:36:19.678Z,6.25
2022-09-25T07:38:50.952Z,5.85
2022-09-25T07:41:18.920Z,6.53
2022-09-25T07:43:45.915Z,6.38
2022-09-25T07:46:13.065Z,5.25
2022-09-25T07:48:40.043Z,4.97
2022-09-25T07:51:11.238Z,5.05
2022-09-25T07:53:39.378Z,5.18
2022-09-25T07:56:07.307Z,5.82
2022-09-25T07:58:37.545Z,6.47
2022-09-25T08:01:06.567Z,6.63
2022-09-25T08:03:33.834Z,7.57
2022-09-25T08:06:02.594Z,6.50
2022-09-25T08:08:29.920Z,7.63
2022-09-25T08:11:09.174Z,8.23
2022-09-25T08:13:39.461Z,7.70
2022-09-25T08:16:12.678Z,7.38
2022-09-25T08:18:46.049Z,7.72
2022-09-25T08:21:14.801Z,7.40
2022-09-25T08:23:47.774Z,7.80
2022-09-25T08:26:15.900Z,7.45
2022-09-25T08:28:45.321Z,8.07
2022-09-25T08:31:14.454Z,8.07
2022-09-25T08:33:48.350Z,8.48
2022-09-25T08:36:16.173Z,7.30
2022-09-25T08:38:43.498Z,7.18
2022-09-25T08:41:22.060Z,7.45
2022-09-25T08:44:18.911Z,6.45
2022-09-25T08:47:18.438Z,6.68
2022-09-25T08:50:04.140Z,7.57
2022-09-25T08:52:32.221Z,7.70
2022-09-25T08:54:59.664Z,7.50
2022-09-25T08:57:45.120Z,7.63
2022-09-25T09:00:21.256Z,7.65
2022-09-25T09:02:55.751Z,6.80
2022-09-25T09:05:29.226Z,8.23
2022-09-25T09:08:25.197Z,8.52
2022-09-25T09:10:54.616Z,8.68
2022-09-25T09:13:32.954Z,9.50
2022-09-25T09:16:14.814Z,9.25
2022-09-25T09:18:42.975Z,10.50
2022-09-25T09:21:34.569Z,10.55
2022-09-25T09:24:39.034Z,10.07
2022-09-25T09:27:21.254Z,10.25
2022-09-25T09:30:20.555Z,9.75
2022-09-25T09:33:10.590Z,9.55
2022-09-25T09:35:43.488Z,5.15
2022-09-25T09:38:28.351Z,2.50
2022-09-25T09:41:13.921Z,2.58
2022-09-25T09:43:46.609Z,2.35
2022-09-25T09:46:25.452Z,1.65
2022-09-25T09:49:27.167Z,1.90
2022-09-25T09:52:21.416Z,1.83
2022-09-25T09:54:59.950Z,1.80
2022-09-25T09:57:39.909Z,1.92
2022-09-25T10:00:14.192Z,1.75
2022-09-25T10:02:58.169Z,1.77
2022-09-25T10:05:32.380Z,2.00
2022-09-25T10:07:59.204Z,2.10
2022-09-25T10:10:37.614Z,2.08
2022-09-25T10:13:13.394Z,1.90
2022-09-25T10:15:51.669Z,1.33
2022-09-25T10:18:23.760Z,1.40
2022-09-25T10:21:02.096Z,1.30
2022-09-25T10:23:59.677Z,1.35
2022-09-25T10:26:34.341Z,1.38
2022-09-25T10:29:03.400Z,1.10
2022-09-25T10:31:36.161Z,1.20
2022-09-25T10:34:13.720Z,1.20
2022-09-25T10:36:42.769Z,1.20
2022-09-25T10:39:44.864Z,1.52
2022-09-25T10:42:39.258Z,1.50
2022-09-25T10:45:32.255Z,1.70
2022-09-25T10:48:17.331Z,1.67
2022-09-25T10:50:44.190Z,1.50
2022-09-25T10:53:30.961Z,1.48
2022-09-25T10:56:03.173Z,1.60
2022-09-25T10:58:36.227Z,1.48
2022-09-25T11:01:04.693Z,1.70
2022-09-25T11:03:39.918Z,1.42
2022-09-25T11:06:21.145Z,1.70
2022-09-25T11:09:04.678Z,1.55
2022-09-25T11:11:34.111Z,1.50
2022-09-25T11:14:03.470Z,1.67
2022-09-25T11:16:50.849Z,1.50
2022-09-25T11:19:32.160Z,1.50
2022-09-25T11:22:25.001Z,1.75
2022-09-25T11:25:04.302Z,1.50
2022-09-25T11:27:58.274Z,1.90
2022-09-25T11:30:28.766Z,2.00
2022-09-25T11:33:33.500Z,1.95
2022-09-25T11:39:13.013Z,2.33
2022-09-25T11:41:57.472Z,1.42
2022-09-25T11:44:42.230Z,2.13
2022-09-25T11:47:40.457Z,1.73
2022-09-25T11:50:15.841Z,1.48
2022-09-25T11:52:51.721Z,1.80
2022-09-25T11:55:43.555Z,1.52
2022-09-25T11:58:19.397Z,2.20
2022-09-25T12:01:07.587Z,1.83
2022-09-25T12:03:58.290Z,1.98
2022-09-25T12:06:48.966Z,1.83
2022-09-25T12:09:42.545Z,1.85
2022-09-25T12:12:24.774Z,1.37
2022-09-25T12:15:17.469Z,1.75
2022-09-25T12:18:16.783Z,2.08
2022-09-25T12:21:11.714Z,2.13
2022-09-25T12:24:09.886Z,2.10
2022-09-25T12:27:00.312Z,2.05
2022-09-25T12:29:45.066Z,2.35
2022-09-25T12:32:21.330Z,2.28
2022-09-25T12:35:02.646Z,2.53
2022-09-25T12:37:43.610Z,2.50
2022-09-25T12:40:51.429Z,2.60
2022-09-25T12:43:27.960Z,2.30
2022-09-25T12:46:02.725Z,2.60
2022-09-25T12:48:44.106Z,2.42
2022-09-25T12:51:22.956Z,2.40
2022-09-25T12:53:58.200Z,2.20
2022-09-25T12:56:52.808Z,2.20
2022-09-25T12:59:46.888Z,2.63
2022-09-25T13:02:45.949Z,3.00
2022-09-25T13:05:33.925Z,3.13
2022-09-25T13:08:23.580Z,2.83
2022-09-25T13:11:05.225Z,3.08
2022-09-25T13:13:40.417Z,3.08
2022-09-25T13:16:07.166Z,3.00
2022-09-25T13:18:35.906Z,2.80
2022-09-25T13:21:26.314Z,2.70
2022-09-25T13:23:54.461Z,2.88
2022-09-25T13:26:26.784Z,2.50
2022-09-25T13:28:59.293Z,2.85
2022-09-25T13:31:33.156Z,2.55
2022-09-25T13:34:06.816Z,3.17
2022-09-25T13:36:49.318Z,2.50
2022-09-25T13:39:37.372Z,3.05
2022-09-25T13:42:37.859Z,2.60
2022-09-25T13:45:37.287Z,2.67
2022-09-25T13:48:26.335Z,2.45
2022-09-25T13:51:22.202Z,2.38
2022-09-25T13:54:22.605Z,2.10
2022-09-25T13:56:54.161Z,2.38
2022-09-25T13:59:35.873Z,2.22
2022-09-25T14:02:50.899Z,2.33
2022-09-25T14:07:48.928Z,2.00
2022-09-25T14:10:17.526Z,2.03
2022-09-25T14:12:48.032Z,2.05
2022-09-25T14:15:24.014Z,1.95
2022-09-25T14:17:59.542Z,2.30
2022-09-25T14:20:29.466Z,2.22
2022-09-25T14:22:59.813Z,6.03
2022-09-25T14:25:33.769Z,7.90
2022-09-25T14:28:03.048Z,9.20
2022-09-25T14:30:34.870Z,9.57
2022-09-25T14:33:22.697Z,10.07
2022-09-25T14:36:07.449Z,11.63
2022-09-25T14:38:42.880Z,11.13
2022-09-25T14:41:33.793Z,12.43
2022-09-25T14:44:17.768Z,12.63
2022-09-25T14:46:52.480Z,14.00
2022-09-25T14:49:23.979Z,13.15
2022-09-25T14:51:51.745Z,11.38
2022-09-25T14:54:23.005Z,9.40
2022-09-25T14:56:56.837Z,8.48
2022-09-25T15:01:55.319Z,6.93
2022-09-25T15:04:40.348Z,6.00
2022-09-25T15:07:20.022Z,5.28
2022-09-25T15:09:53.057Z,5.03
2022-09-25T15:12:34.497Z,4.37
2022-09-25T15:15:04.322Z,4.93
2022-09-25T15:17:33.171Z,4.15
2022-09-25T15:20:07.901Z,4.50
2022-09-25T15:22:39.269Z,4.50
2022-09-25T15:25:08.288Z,4.45
2022-09-25T15:27:42.369Z,3.65
2022-09-25T15:30:16.039Z,3.05
2022-09-25T15:32:46.288Z,3.45
2022-09-25T15:35:17.386Z,3.88
2022-09-25T15:37:45.433Z,3.90
2022-09-25T15:40:34.996Z,3.15
2022-09-25T15:43:02.763Z,3.05
2022-09-25T15:45:44.973Z,3.17
2022-09-25T15:48:18.809Z,3.95
2022-09-25T15:50:45.691Z,3.75
2022-09-25T15:53:27.708Z,3.60
2022-09-25T15:56:11.496Z,4.82
2022-09-25T15:58:46.033Z,4.00
2022-09-25T16:01:33.795Z,3.50
2022-09-25T16:04:24.148Z,3.40
2022-09-25T16:06:53.602Z,2.80
2022-09-25T16:09:23.770Z,2.90
2022-09-25T16:11:50.567Z,2.90
2022-09-25T16:14:22.555Z,3.30
2022-09-25T16:16:51.043Z,3.13
2022-09-25T16:19:26.530Z,2.75
2022-09-25T16:21:53.820Z,3.03
2022-09-25T16:24:25.849Z,2.50
2022-09-25T16:26:58.345Z,2.83
2022-09-25T16:29:39.204Z,3.47
2022-09-25T16:32:13.684Z,3.15
2022-09-25T16:34:42.037Z,3.00
2022-09-25T16:37:20.714Z,4.15
2022-09-25T16:40:28.834Z,3.95
2022-09-25T16:42:57.964Z,3.90
2022-09-25T16:45:34.912Z,3.85
2022-09-25T16:48:27.911Z,4.38
2022-09-25T16:50:55.751Z,3.50
2022-09-25T16:53:27.341Z,3.80
2022-09-25T16:55:57.924Z,3.35
2022-09-25T16:58:25.056Z,4.75
2022-09-25T17:00:51.770Z,4.03
2022-09-25T17:03:18.408Z,3.58
2022-09-25T17:05:45.118Z,3.85
2022-09-25T17:08:20.430Z,4.93
2022-09-25T17:10:50.754Z,4.85
2022-09-25T17:13:24.796Z,4.65
2022-09-25T17:15:55.619Z,4.30
2022-09-25T17:18:22.311Z,3.80
2022-09-25T17:20:54.112Z,4.65
2022-09-25T17:23:22.756Z,3.63
2022-09-25T17:25:52.233Z,4.80
2022-09-25T17:28:18.873Z,4.05
2022-09-25T17:30:45.970Z,5.53
2022-09-25T17:33:21.390Z,4.60
2022-09-25T17:35:56.057Z,4.20
2022-09-25T17:38:22.758Z,4.35
2022-09-25T17:40:52.413Z,3.97
2022-09-25T17:43:21.847Z,4.00
2022-09-25T17:45:52.126Z,4.15
2022-09-25T17:48:26.292Z,3.65
2022-09-25T17:51:04.137Z,3.05
2022-09-25T17:53:33.970Z,3.33
2022-09-25T17:56:01.889Z,3.47
2022-09-25T17:58:31.589Z,3.97
2022-09-25T18:01:00.953Z,4.03
2022-09-25T18:03:30.279Z,3.92
2022-09-25T18:05:59.608Z,3.88
2022-09-25T18:08:26.326Z,4.60
2022-09-25T18:10:54.705Z,3.47
2022-09-25T18:13:21.811Z,4.10
2022-09-25T18:15:54.451Z,3.78
2022-09-25T18:18:23.935Z,3.25
2022-09-25T18:21:13.547Z,3.75
2022-09-25T18:23:45.737Z,3.00
2022-09-25T18:26:14.586Z,3.30
2022-09-25T18:28:43.349Z,3.50
2022-09-25T18:31:12.860Z,3.28
2022-09-25T18:33:40.847Z,2.85
2022-09-25T18:36:11.041Z,3.10
2022-09-25T18:38:38.667Z,2.85
2022-09-25T18:41:05.427Z,5.80
2022-09-25T18:43:34.384Z,4.53
2022-09-25T18:46:01.155Z,4.68
2022-09-25T18:48:30.528Z,4.07
2022-09-25T18:50:59.740Z,4.78
2022-09-25T18:53:26.489Z,4.35
2022-09-25T18:55:54.790Z,4.20
2022-09-25T18:58:21.511Z,4.03
2022-09-25T19:00:48.156Z,3.95
2022-09-25T19:03:14.913Z,4.70
2022-09-25T19:05:42.083Z,5.00
2022-09-25T19:08:12.590Z,4.53
2022-09-25T19:10:39.229Z,4.68
2022-09-25T19:13:05.899Z,4.78
2022-09-25T19:15:33.350Z,4.45
2022-09-25T19:18:00.416Z,4.25
2022-09-25T19:20:27.177Z,3.35
2022-09-25T19:22:54.323Z,3.75
2022-09-25T19:25:23.254Z,3.60
2022-09-25T19:27:50.038Z,2.92
2022-09-25T19:30:16.756Z,3.00
2022-09-25T19:32:45.811Z,3.00
2022-09-25T19:35:15.714Z,3.45
2022-09-25T19:37:42.506Z,2.85
2022-09-25T19:40:28.368Z,3.20
2022-09-25T19:42:55.833Z,2.90
2022-09-25T19:45:22.666Z,3.17
2022-09-25T19:47:49.336Z,3.70
2022-09-25T19:50:18.536Z,3.80
2022-09-25T19:52:51.083Z,4.13
2022-09-25T19:55:18.091Z,4.65
2022-09-25T19:57:46.142Z,3.80
2022-09-25T20:00:15.755Z,4.57
2022-09-25T20:02:46.408Z,3.60
2022-09-25T20:05:13.459Z,3.58
2022-09-25T20:07:40.240Z,3.75
2022-09-25T20:10:07.389Z,3.90
2022-09-25T20:12:39.029Z,4.38
2022-09-25T20:15:06.310Z,4.25
2022-09-25T20:17:35.476Z,3.78
2022-09-25T20:20:02.756Z,3.92
2022-09-25T20:22:31.493Z,3.78
2022-09-25T20:24:58.855Z,3.75
2022-09-25T20:27:26.103Z,4.50
2022-09-25T20:29:52.968Z,4.43
2022-09-25T20:32:19.603Z,4.10
2022-09-25T20:34:46.691Z,4.03
2022-09-25T20:37:13.365Z,4.50
2022-09-25T20:39:42.513Z,4.20
2022-09-25T20:42:11.312Z,3.58
2022-09-25T20:44:37.919Z,4.43
2022-09-25T20:47:04.609Z,4.45
2022-09-25T20:49:31.314Z,4.10
2022-09-25T20:51:58.067Z,4.75
2022-09-25T20:54:25.563Z,4.30
2022-09-25T20:56:52.681Z,4.00
2022-09-25T20:59:20.413Z,4.35
2022-09-25T21:01:49.607Z,3.70
2022-09-25T21:04:17.992Z,3.17
2022-09-25T21:06:45.192Z,4.10
2022-09-25T21:09:20.170Z,3.45
2022-09-25T21:11:46.932Z,3.70
2022-09-25T21:14:19.466Z,3.58
2022-09-25T21:16:47.492Z,3.30
2022-09-25T21:19:15.565Z,4.03
2022-09-25T21:21:42.569Z,3.63
2022-09-25T21:24:13.367Z,3.80
2022-09-25T21:26:40.843Z,3.05
2022-09-25T21:29:08.501Z,4.30
2022-09-25T21:31:38.469Z,3.70
2022-09-25T21:34:09.615Z,3.72
2022-09-25T21:36:36.555Z,3.75
2022-09-25T21:39:04.023Z,3.78
2022-09-25T21:41:31.098Z,3.75
2022-09-25T21:44:01.289Z,4.10
2022-09-25T21:46:28.886Z,4.55
2022-09-25T21:48:55.557Z,3.83
2022-09-25T21:51:25.198Z,3.67
2022-09-25T21:53:53.722Z,4.13
2022-09-25T21:56:22.846Z,3.83
2022-09-25T21:58:51.232Z,4.40
2022-09-25T22:01:27.586Z,3.88
2022-09-25T22:03:56.880Z,4.00
2022-09-25T22:06:26.319Z,3.67
2022-09-25T22:09:00.061Z,3.30
2022-09-25T22:11:27.532Z,3.30
2022-09-25T22:13:57.344Z,3.40
2022-09-25T22:16:29.222Z,3.22
2022-09-25T22:19:05.020Z,3.70
2022-09-25T22:21:33.480Z,3.92
2022-09-25T22:24:03.543Z,4.18
2022-09-25T22:26:30.798Z,3.90
2022-09-25T22:28:57.800Z,4.72
2022-09-25T22:31:29.251Z,4.13
2022-09-25T22:34:01.165Z,4.47
2022-09-25T22:36:28.411Z,4.10
2022-09-25T22:38:55.235Z,4.85
2022-09-25T22:41:22.231Z,4.90
2022-09-25T22:43:53.347Z,4.35
2022-09-25T22:46:24.048Z,4.85
2022-09-25T22:48:51.602Z,4.55
2022-09-25T22:51:20.460Z,4.80
2022-09-25T22:53:50.792Z,4.22
2022-09-25T22:56:26.663Z,4.60
2022-09-25T22:58:56.501Z,4.25
2022-09-25T23:01:30.641Z,4.63
2022-09-25T23:04:00.610Z,4.35
2022-09-25T23:06:29.404Z,5.07
2022-09-25T23:08:58.760Z,4.50
2022-09-25T23:11:26.421Z,5.00
2022-09-25T23:14:04.935Z,4.10
2022-09-25T23:16:33.206Z,4.95
2022-09-25T23:19:02.961Z,4.35
2022-09-25T23:21:31.382Z,4.85
2022-09-25T23:24:01.869Z,4.55
2022-09-25T23:26:29.675Z,5.00
2022-09-25T23:28:58.569Z,5.05
2022-09-25T23:31:28.753Z,4.25
2022-09-25T23:33:58.071Z,4.47
2022-09-25T23:36:25.555Z,4.57
2022-09-25T23:38:56.031Z,4.40
2022-09-25T23:41:26.241Z,4.28
2022-09-25T23:43:56.293Z,4.78
2022-09-25T23:46:27.036Z,4.43
2022-09-25T23:48:54.150Z,4.75
2022-09-25T23:51:26.023Z,4.97
2022-09-25T23:53:57.351Z,5.38
2022-09-25T23:56:26.470Z,5.00
2022-09-25T23:58:58.223Z,4.32
